Solomon, Kansas
Current Conditions -  °F | °C
As of 7:53 AM on Thursday 30 Oct 2014 (Local Time) from KSLN Reporting Station
Clear Clear  
Wind Chill: 43°   Ceiling: Unl
Heat Index: 48°   Visibility: 10mi
Dew Point: 38°   Wind: 13mph
Humidity: 68%   Direction: 310°NW
Pressure: 30.08"   Gusts: NA
Location:  38.92°N, 97.37°W
Report Text: KSLN 301253Z 31011KT 10SM CLR 09/03 A3008 RMK AO2 SLP185 T00890033
Loading
Personal Weather Stations






























Interactive Weather Map
Tropical Storm Tracking
New forecast layout! Learn more

10-Day Weather Forecast

Advertisements
Track Severe Weather on mobile